Airfield :
LOGIN :

Register | Disclaimer

   EN    FR    IT 

 










Legend :    VFR   Marginal VFR   IFR   Intensive IFR   Very Intensive IFR
Visi :
Ceiling :
>= 8 km
>= 3000ft
5 to 8 km
1000 to 3000 ft
1500m to 5 km
500 to 1000 ft
800 to 1500m
200 to 500 ft
< 800m
< 200 ft
Symbols :   Thunderstorms  Fog  Heavy snow  Heavy precipitations  Wind > 20 kt
SIGMETs :     Misc.  Thunderstorms  Icing  Turbulence  Mountain Waves  Volcanic Ashes







- Airport Elevation : 353 ft
- IATA code : LIN


LIML - Milano Linate

CURRENT METAR :
  • 241320Z VRB04KT 9999 SCT025 23/14 Q1017 NOSIG

EXPIRED METARs :
  • 241250Z 15006KT 120V200 9999 FEW030 SCT050 23/14 Q1017 NOSIG
  • 241220Z 15005KT 080V210 9999 SCT030 23/13 Q1017 NOSIG
  • 241150Z 17004KT 120V220 9999 SCT030 22/14 Q1017 NOSIG
  • 241120Z 17006KT 080V230 9999 SCT030 22/14 Q1017 NOSIG
  • 241050Z 18005KT 120V250 9999 FEW030 22/14 Q1018 NOSIG

TAF TAF LIML
Valid from the 24 at 12:00 until the 25 at 12:00 UTC


241100Z 2412/2512 11005KT 9999 SCT030
No reported NOTAMs for that airfield.
3 SIGMETs reported for the Milano FIR (LIMM) :
 
Embedded thunderstorms
LIMM SIGMET 9 VALID 241155/241355 LIMM
LIMM MILANO FIR EMBD TS OBS WI N4509 E01055 - N4514 E01236 - N4621 E01322 - N4537 E01355 - N4332 E01013 - N4404 E00913 - N4509 E01055 TOP FL340 MOV SE NC=
Embedded thunderstorms
LIMM SIGMET 10 VALID 241240/241440 LIMM
LIMM MILANO FIR EMBD TS FCST WI N4339 E01027 - N4454 E01306 - N4346 E01409 - N4330 E01427 - N4329 E01318 - N4340 E01201 - N4339 E01027 TOP FL340 MOV SE NC=
SIGMET 3  cancelation
LIMM MILANO FIR CNL SIGMET 3 240635/240835=



MET'MAP, your aeronautical weather chart ! - Copyright ORBIFLY December 2007 - Disclaimer

ORBIFLY MET'MAP TEAM :

Programming & Development : Alexandra Zaïnal
Concept & Development : Baudouin d'Aumeries
Co-Development & Prog : Marc-Olivier Méhu
Technical & hardware support : Manuel Goepfert

Contact : metmap@orbifly.com




SOURCES & CREDITS :

   NOAA